createdAt,value
2022-10-15T00:01:46.115Z,23.00
2022-10-15T00:04:15.563Z,27.93
2022-10-15T00:06:45.110Z,27.63
2022-10-15T00:09:13.537Z,32.70
2022-10-15T00:11:42.599Z,30.33
2022-10-15T00:14:11.680Z,32.60
2022-10-15T00:16:40.924Z,26.30
2022-10-15T00:19:10.485Z,24.83
2022-10-15T00:21:39.064Z,26.40
2022-10-15T00:24:07.940Z,24.57
2022-10-15T00:26:35.673Z,28.93
2022-10-15T00:29:05.042Z,25.40
2022-10-15T00:31:34.072Z,25.17
2022-10-15T00:34:03.184Z,22.00
2022-10-15T00:36:36.464Z,22.23
2022-10-15T00:39:07.132Z,23.57
2022-10-15T00:41:42.976Z,25.33
2022-10-15T00:44:25.853Z,23.47
2022-10-15T00:47:27.108Z,21.73
2022-10-15T00:50:27.657Z,20.80
2022-10-15T00:53:10.107Z,25.37
2022-10-15T00:55:42.931Z,20.30
2022-10-15T00:58:28.460Z,21.67
2022-10-15T01:00:57.231Z,23.80
2022-10-15T01:03:26.563Z,26.00
2022-10-15T01:05:55.725Z,22.63
2022-10-15T01:08:23.662Z,30.17
2022-10-15T01:11:49.813Z,23.73
2022-10-15T01:15:08.964Z,30.37
2022-10-15T01:17:56.930Z,33.77
2022-10-15T01:21:11.465Z,39.17
2022-10-15T01:24:28.017Z,29.50
2022-10-15T01:27:19.465Z,30.93
2022-10-15T01:30:19.939Z,27.33
2022-10-15T01:33:49.212Z,25.73
2022-10-15T01:36:36.778Z,27.03
2022-10-15T01:39:32.082Z,26.87
2022-10-15T01:42:48.555Z,22.17
2022-10-15T01:45:32.298Z,30.07
2022-10-15T01:48:18.082Z,29.30
2022-10-15T01:50:57.069Z,30.73
2022-10-15T01:53:29.279Z,30.67
2022-10-15T01:56:10.512Z,42.73
2022-10-15T01:58:52.955Z,48.90
2022-10-15T02:01:21.494Z,39.37
2022-10-15T02:03:53.813Z,51.00
2022-10-15T02:06:44.816Z,42.73
2022-10-15T02:09:58.042Z,42.40
2022-10-15T02:13:08.796Z,39.67
2022-10-15T02:16:40.433Z,34.67
2022-10-15T02:19:27.085Z,54.63
2022-10-15T02:22:24.297Z,38.63
2022-10-15T02:25:10.056Z,33.90
2022-10-15T02:27:41.923Z,35.93
2022-10-15T02:30:12.498Z,35.43
2022-10-15T02:32:48.417Z,35.73
2022-10-15T02:35:17.290Z,43.20
2022-10-15T02:37:54.012Z,54.73
2022-10-15T02:40:29.708Z,50.70
2022-10-15T02:42:57.871Z,73.47
2022-10-15T02:45:25.605Z,49.87
2022-10-15T02:47:53.340Z,46.20
2022-10-15T02:50:20.926Z,41.67
2022-10-15T02:52:48.662Z,65.70
2022-10-15T02:55:16.405Z,67.97
2022-10-15T02:57:44.391Z,65.23
2022-10-15T03:00:13.269Z,63.50
2022-10-15T03:02:41.666Z,71.37
2022-10-15T03:05:10.020Z,138.83
2022-10-15T03:07:38.271Z,176.17
2022-10-15T03:10:07.538Z,101.77
2022-10-15T03:12:35.665Z,99.93
2022-10-15T03:15:07.901Z,104.77
2022-10-15T03:17:36.688Z,133.17
2022-10-15T03:20:06.335Z,108.70
2022-10-15T03:22:38.505Z,108.80
2022-10-15T03:25:07.050Z,80.33
2022-10-15T03:27:34.635Z,90.60
2022-10-15T03:30:02.592Z,85.73
2022-10-15T03:32:36.153Z,99.97
2022-10-15T03:35:06.777Z,82.87
2022-10-15T03:37:35.276Z,59.37
2022-10-15T03:40:08.235Z,65.30
2022-10-15T03:42:38.151Z,55.47
2022-10-15T03:45:07.819Z,59.17
2022-10-15T03:47:35.876Z,56.60
2022-10-15T03:50:04.000Z,50.53
2022-10-15T03:52:31.806Z,55.50
2022-10-15T03:55:00.528Z,55.20
2022-10-15T03:57:28.406Z,61.27
2022-10-15T04:00:02.554Z,48.57
2022-10-15T04:02:40.582Z,55.63
2022-10-15T04:05:19.713Z,52.60
2022-10-15T04:07:53.077Z,55.10
2022-10-15T04:10:22.163Z,62.40
2022-10-15T04:12:49.873Z,49.63
2022-10-15T04:15:18.881Z,46.13
2022-10-15T04:17:55.984Z,53.37
2022-10-15T04:20:26.065Z,46.03
2022-10-15T04:22:53.761Z,48.90
2022-10-15T04:25:21.457Z,64.10
2022-10-15T04:27:49.054Z,53.90
2022-10-15T04:30:19.389Z,53.40
2022-10-15T04:32:56.091Z,57.50
2022-10-15T04:35:24.737Z,63.40
2022-10-15T04:38:24.809Z,53.27
2022-10-15T04:41:13.603Z,60.17
2022-10-15T04:44:02.190Z,54.17
2022-10-15T04:46:33.439Z,59.23
2022-10-15T04:49:09.372Z,64.90
2022-10-15T04:51:40.681Z,57.50
2022-10-15T04:54:13.638Z,60.83
2022-10-15T04:56:56.272Z,61.43
2022-10-15T04:59:24.111Z,59.83
2022-10-15T05:02:12.165Z,75.50
2022-10-15T05:04:40.115Z,72.80
2022-10-15T05:07:07.815Z,54.37
2022-10-15T05:09:37.251Z,65.00
2022-10-15T05:12:06.441Z,48.93
2022-10-15T05:14:35.855Z,53.93
2022-10-15T05:17:10.992Z,59.13
2022-10-15T05:19:41.458Z,59.70
2022-10-15T05:22:16.684Z,67.10
2022-10-15T05:24:50.424Z,57.13
2022-10-15T05:27:36.404Z,63.17
2022-10-15T05:30:06.960Z,56.90
2022-10-15T05:32:44.295Z,59.00
2022-10-15T05:35:16.771Z,57.67
2022-10-15T05:37:54.020Z,57.23
2022-10-15T05:40:22.374Z,53.27
2022-10-15T05:43:05.934Z,53.67
2022-10-15T05:45:33.560Z,54.80
2022-10-15T05:48:07.305Z,50.73
2022-10-15T05:50:36.212Z,52.93
2022-10-15T05:53:08.235Z,51.73
2022-10-15T05:55:41.247Z,54.67
2022-10-15T05:58:08.998Z,51.30
2022-10-15T06:00:39.786Z,50.37
2022-10-15T06:03:10.948Z,57.53
2022-10-15T06:05:38.509Z,53.90
2022-10-15T06:08:06.225Z,53.17
2022-10-15T06:10:38.254Z,50.90
2022-10-15T06:13:07.438Z,53.00
2022-10-15T06:15:35.600Z,52.93
2022-10-15T06:18:05.622Z,54.27
2022-10-15T06:20:33.958Z,53.43
2022-10-15T06:23:03.874Z,61.43
2022-10-15T06:25:33.911Z,57.67
2022-10-15T06:28:07.569Z,60.27
2022-10-15T06:30:43.777Z,51.93
2022-10-15T06:35:45.022Z,48.60
2022-10-15T06:38:12.849Z,57.63
2022-10-15T06:40:40.480Z,72.20
2022-10-15T06:43:12.636Z,57.43
2022-10-15T06:45:42.685Z,54.67
2022-10-15T06:48:19.470Z,61.27
2022-10-15T06:50:47.283Z,53.10
2022-10-15T06:53:16.768Z,55.83
2022-10-15T06:55:45.173Z,57.03
2022-10-15T06:58:13.412Z,50.80
2022-10-15T07:00:41.071Z,50.23
2022-10-15T07:03:09.236Z,47.27
2022-10-15T07:05:37.581Z,43.00
2022-10-15T07:08:06.246Z,46.63
2022-10-15T07:10:34.602Z,44.47
2022-10-15T07:13:03.174Z,45.13
2022-10-15T07:15:30.921Z,44.73
2022-10-15T07:18:01.739Z,43.03
2022-10-15T07:20:32.101Z,35.47
2022-10-15T07:23:03.659Z,37.47
2022-10-15T07:25:32.905Z,36.97
2022-10-15T07:28:00.538Z,36.87
2022-10-15T07:30:29.953Z,35.10
2022-10-15T07:33:01.414Z,32.63
2022-10-15T07:35:29.338Z,33.33
2022-10-15T07:38:01.570Z,35.20
2022-10-15T07:40:30.261Z,29.93
2022-10-15T07:43:00.414Z,26.77
2022-10-15T07:45:32.133Z,26.77
2022-10-15T07:47:59.749Z,27.13
2022-10-15T07:50:29.369Z,29.13
2022-10-15T07:53:01.211Z,26.90
2022-10-15T07:55:28.762Z,32.20
2022-10-15T07:57:59.738Z,31.37
2022-10-15T08:00:27.844Z,27.10
2022-10-15T08:02:55.556Z,26.37
2022-10-15T08:05:23.163Z,30.50
2022-10-15T08:07:50.844Z,26.80
2022-10-15T08:10:25.967Z,24.80
2022-10-15T08:12:54.696Z,26.30
2022-10-15T08:15:22.244Z,21.97
2022-10-15T08:17:50.405Z,20.77
2022-10-15T08:20:19.477Z,22.47
2022-10-15T08:22:47.131Z,22.17
2022-10-15T08:25:15.687Z,19.90
2022-10-15T08:27:43.380Z,18.10
2022-10-15T08:30:11.734Z,18.90
2022-10-15T08:32:39.551Z,23.27
2022-10-15T08:35:08.209Z,21.03
2022-10-15T08:37:35.715Z,19.87
2022-10-15T08:40:06.786Z,21.47
2022-10-15T08:42:44.982Z,20.03
2022-10-15T08:45:33.122Z,17.60
2022-10-15T08:48:32.534Z,17.87
2022-10-15T08:51:22.801Z,16.30
2022-10-15T08:54:06.328Z,17.83
2022-10-15T08:56:49.393Z,15.60
2022-10-15T09:00:23.774Z,15.50
2022-10-15T09:04:13.817Z,10.23
2022-10-15T09:06:43.215Z,12.47
2022-10-15T09:09:32.640Z,10.37
2022-10-15T09:12:43.556Z,11.87
2022-10-15T09:15:24.008Z,12.60
2022-10-15T09:17:55.867Z,6.70
2022-10-15T09:20:36.681Z,6.43
2022-10-15T09:23:17.340Z,17.03
2022-10-15T09:26:09.709Z,7.20
2022-10-15T09:28:57.389Z,5.10
2022-10-15T09:31:46.718Z,6.27
2022-10-15T09:34:49.254Z,4.30
2022-10-15T09:38:05.713Z,4.17
2022-10-15T09:41:37.210Z,4.17
2022-10-15T09:44:13.731Z,6.27
2022-10-15T09:46:51.630Z,5.00
2022-10-15T09:49:32.495Z,2.90
2022-10-15T09:52:59.163Z,3.10
2022-10-15T09:55:52.305Z,2.83
2022-10-15T09:58:40.306Z,2.00
2022-10-15T10:01:31.365Z,2.00
2022-10-15T10:04:20.681Z,3.40
2022-10-15T10:07:04.781Z,2.90
2022-10-15T10:09:55.833Z,2.00
2022-10-15T10:12:35.625Z,2.87
2022-10-15T10:15:37.189Z,2.00
2022-10-15T10:18:06.925Z,2.30
2022-10-15T10:20:35.270Z,2.53
2022-10-15T10:23:24.318Z,4.10
2022-10-15T10:25:52.448Z,2.47
2022-10-15T10:29:04.673Z,2.00
2022-10-15T10:31:42.890Z,2.30
2022-10-15T10:34:27.872Z,1.70
2022-10-15T10:36:57.598Z,3.20
2022-10-15T10:39:36.582Z,1.77
2022-10-15T10:42:34.855Z,2.07
2022-10-15T10:45:24.141Z,2.03
2022-10-15T10:47:51.748Z,3.03
2022-10-15T10:50:40.771Z,1.83
2022-10-15T10:53:25.411Z,3.20
2022-10-15T10:55:57.556Z,1.97
2022-10-15T10:58:37.082Z,2.50
2022-10-15T11:01:06.421Z,1.93
2022-10-15T11:03:45.363Z,2.00
2022-10-15T11:06:23.706Z,3.40
2022-10-15T11:09:46.364Z,3.50
2022-10-15T11:13:26.409Z,3.00
2022-10-15T11:16:33.827Z,4.07
2022-10-15T11:23:14.253Z,2.30
2022-10-15T11:25:59.381Z,1.93
2022-10-15T11:29:15.469Z,2.17
2022-10-15T11:32:28.448Z,3.60
2022-10-15T11:36:00.340Z,2.30
2022-10-15T11:39:00.398Z,2.03
2022-10-15T11:42:30.738Z,2.77
2022-10-15T11:45:16.376Z,3.37
2022-10-15T11:48:44.276Z,2.03
2022-10-15T11:52:05.097Z,1.90
2022-10-15T11:54:54.290Z,2.73
2022-10-15T11:57:28.228Z,3.00
2022-10-15T12:00:35.003Z,1.80
2022-10-15T12:03:22.591Z,1.70
2022-10-15T12:06:15.299Z,2.10
2022-10-15T12:08:47.833Z,2.20
2022-10-15T12:12:03.593Z,4.03
2022-10-15T12:15:18.891Z,3.60
2022-10-15T12:18:18.050Z,2.67
2022-10-15T12:20:46.714Z,2.53
2022-10-15T12:23:40.684Z,2.37
2022-10-15T12:26:34.064Z,2.47
2022-10-15T12:29:24.911Z,4.03
2022-10-15T12:31:58.740Z,2.03
2022-10-15T12:34:44.261Z,2.60
2022-10-15T12:37:24.935Z,2.43
2022-10-15T12:40:33.597Z,2.70
2022-10-15T12:43:21.771Z,3.77
2022-10-15T12:45:59.577Z,3.03
2022-10-15T12:48:45.074Z,2.07
2022-10-15T12:51:31.649Z,2.60
2022-10-15T12:54:00.888Z,5.03
2022-10-15T12:56:41.901Z,2.57
2022-10-15T12:59:46.415Z,2.70
2022-10-15T13:02:45.309Z,4.20
2022-10-15T13:05:47.864Z,2.60
2022-10-15T13:08:26.711Z,3.10
2022-10-15T13:11:01.299Z,4.00
2022-10-15T13:13:35.574Z,5.00
2022-10-15T13:16:09.696Z,3.13
2022-10-15T13:18:38.365Z,2.17
2022-10-15T13:21:11.408Z,2.37
2022-10-15T13:23:52.266Z,2.63
2022-10-15T13:26:27.363Z,2.70
2022-10-15T13:28:58.765Z,3.30
2022-10-15T13:31:37.667Z,2.27
2022-10-15T13:34:30.197Z,9.00
2022-10-15T13:37:04.083Z,2.17
2022-10-15T13:39:39.574Z,3.50
2022-10-15T13:42:23.276Z,2.17
2022-10-15T13:45:18.224Z,2.30
2022-10-15T13:47:58.234Z,3.00
2022-10-15T13:50:36.687Z,3.10
2022-10-15T13:53:28.341Z,2.20
2022-10-15T13:56:15.754Z,2.73
2022-10-15T13:58:47.119Z,2.27
2022-10-15T14:01:25.064Z,3.40
2022-10-15T14:04:00.831Z,3.07
2022-10-15T14:06:40.439Z,2.33
2022-10-15T14:09:38.373Z,2.50
2022-10-15T14:12:08.971Z,2.20
2022-10-15T14:14:47.006Z,2.63
2022-10-15T14:17:26.907Z,3.00
2022-10-15T14:20:27.268Z,3.07
2022-10-15T14:22:54.794Z,3.30
2022-10-15T14:25:27.612Z,4.70
2022-10-15T14:27:55.729Z,4.67
2022-10-15T14:30:34.269Z,7.80
2022-10-15T14:33:02.110Z,4.73
2022-10-15T14:38:56.270Z,5.10
2022-10-15T14:41:32.768Z,5.10
2022-10-15T14:44:12.621Z,8.27
2022-10-15T14:46:49.625Z,5.03
2022-10-15T14:49:30.787Z,5.00
2022-10-15T14:52:20.474Z,4.77
2022-10-15T14:55:09.397Z,4.13
2022-10-15T14:57:45.910Z,4.87
2022-10-15T15:00:47.035Z,5.07
2022-10-15T15:03:40.221Z,5.60
2022-10-15T15:06:09.864Z,4.37
2022-10-15T15:08:37.984Z,4.03
2022-10-15T15:11:18.029Z,4.57
2022-10-15T15:13:49.569Z,4.40
2022-10-15T15:16:19.532Z,3.90
2022-10-15T15:18:48.972Z,5.27
2022-10-15T15:21:24.367Z,3.57
2022-10-15T15:23:52.365Z,4.00
2022-10-15T15:26:20.166Z,6.50
2022-10-15T15:28:47.797Z,5.27
2022-10-15T15:31:19.032Z,4.03
2022-10-15T15:33:46.838Z,3.83
2022-10-15T15:36:22.413Z,4.77
2022-10-15T15:38:52.744Z,4.97
2022-10-15T15:41:24.514Z,4.13
2022-10-15T15:43:55.007Z,5.33
2022-10-15T15:46:22.822Z,7.43
2022-10-15T15:48:50.385Z,5.67
2022-10-15T15:51:32.011Z,4.43
2022-10-15T15:54:02.300Z,4.10
2022-10-15T15:56:30.031Z,4.53
2022-10-15T15:58:57.829Z,4.33
2022-10-15T16:01:25.633Z,3.97
2022-10-15T16:03:53.292Z,3.87
2022-10-15T16:06:21.090Z,4.13
2022-10-15T16:08:53.166Z,4.70
2022-10-15T16:11:21.088Z,5.33
2022-10-15T16:13:49.272Z,7.37
2022-10-15T16:16:17.546Z,6.60
2022-10-15T16:18:45.380Z,4.80
2022-10-15T16:21:12.907Z,6.80
2022-10-15T16:23:42.399Z,4.80
2022-10-15T16:26:10.661Z,5.67
2022-10-15T16:28:38.522Z,5.57
2022-10-15T16:31:29.454Z,7.23
2022-10-15T16:33:59.438Z,4.63
2022-10-15T16:36:27.043Z,6.23
2022-10-15T16:38:54.711Z,5.73
2022-10-15T16:41:22.713Z,5.33
2022-10-15T16:43:51.022Z,6.50
2022-10-15T16:46:20.838Z,6.57
2022-10-15T16:48:57.173Z,4.53
2022-10-15T16:51:26.102Z,5.27
2022-10-15T16:53:54.876Z,4.20
2022-10-15T16:56:28.440Z,5.80
2022-10-15T16:58:57.471Z,4.90
2022-10-15T17:01:30.143Z,5.90
2022-10-15T17:04:00.129Z,3.37
2022-10-15T17:06:31.207Z,3.53
2022-10-15T17:09:05.407Z,4.03
2022-10-15T17:11:40.276Z,6.53
2022-10-15T17:14:16.305Z,2.83
2022-10-15T17:16:52.745Z,4.43
2022-10-15T17:19:28.910Z,2.73
2022-10-15T17:21:59.643Z,3.30
2022-10-15T17:24:27.266Z,3.17
2022-10-15T17:26:57.928Z,2.30
2022-10-15T17:29:29.090Z,2.47
2022-10-15T17:32:03.049Z,2.90
2022-10-15T17:34:30.816Z,5.63
2022-10-15T17:36:58.470Z,6.23
2022-10-15T17:39:26.277Z,2.40
2022-10-15T17:41:54.004Z,2.70
2022-10-15T17:44:22.015Z,2.53
2022-10-15T17:46:50.581Z,4.30
2022-10-15T17:49:21.136Z,3.80
2022-10-15T17:51:48.913Z,3.67
2022-10-15T17:54:16.758Z,4.20
2022-10-15T17:56:45.411Z,3.93
2022-10-15T17:59:13.658Z,4.13
2022-10-15T18:02:00.600Z,4.80
2022-10-15T18:04:30.974Z,2.37
2022-10-15T18:06:58.809Z,3.97
2022-10-15T18:09:28.502Z,4.03
2022-10-15T18:12:01.265Z,2.60
2022-10-15T18:14:32.294Z,8.10
2022-10-15T18:17:00.359Z,5.83
2022-10-15T18:19:28.386Z,3.90
2022-10-15T18:21:56.965Z,4.43
2022-10-15T18:24:25.573Z,3.60
2022-10-15T18:26:53.894Z,4.20
2022-10-15T18:29:22.569Z,3.77
2022-10-15T18:31:53.572Z,3.90
2022-10-15T18:34:22.924Z,2.50
2022-10-15T18:36:50.667Z,3.50
2022-10-15T18:39:18.289Z,2.30
2022-10-15T18:41:46.250Z,3.27
2022-10-15T18:44:18.375Z,2.60
2022-10-15T18:46:46.469Z,3.77
2022-10-15T18:49:18.654Z,3.50
2022-10-15T18:51:50.798Z,4.00
2022-10-15T18:54:20.963Z,4.43
2022-10-15T18:56:49.498Z,5.53
2022-10-15T18:59:20.935Z,5.40
2022-10-15T19:01:49.866Z,4.57
2022-10-15T19:04:21.398Z,5.67
2022-10-15T19:06:54.009Z,8.23
2022-10-15T19:09:27.161Z,5.67
2022-10-15T19:11:58.364Z,5.20
2022-10-15T19:14:29.169Z,6.10
2022-10-15T19:16:58.063Z,7.77
2022-10-15T19:19:27.077Z,6.63
2022-10-15T19:21:58.141Z,6.90
2022-10-15T19:24:26.101Z,6.43
2022-10-15T19:26:54.204Z,5.83
2022-10-15T19:29:22.941Z,7.30
2022-10-15T19:31:54.313Z,8.30
2022-10-15T19:34:23.310Z,10.23
2022-10-15T19:36:51.315Z,7.73
2022-10-15T19:39:24.168Z,6.90
2022-10-15T19:41:53.156Z,6.83
2022-10-15T19:44:25.727Z,8.43
2022-10-15T19:46:56.659Z,6.40
2022-10-15T19:49:25.486Z,7.00
2022-10-15T19:51:55.337Z,7.70
2022-10-15T19:56:55.895Z,7.20
2022-10-15T19:59:23.697Z,10.13
2022-10-15T20:01:51.545Z,11.00
2022-10-15T20:04:25.189Z,9.40
2022-10-15T20:06:53.711Z,7.97
2022-10-15T20:09:21.375Z,11.20
2022-10-15T20:11:49.289Z,8.17
2022-10-15T20:14:17.079Z,10.60
2022-10-15T20:16:44.670Z,8.43
2022-10-15T20:19:12.745Z,8.93
2022-10-15T20:21:40.524Z,11.93
2022-10-15T20:24:08.171Z,8.77
2022-10-15T20:26:35.930Z,9.50
2022-10-15T20:29:03.969Z,9.00
2022-10-15T20:31:33.391Z,11.60
2022-10-15T20:34:03.297Z,8.30
2022-10-15T20:36:31.087Z,12.97
2022-10-15T20:39:01.879Z,7.70
2022-10-15T20:41:31.593Z,10.40
2022-10-15T20:43:59.747Z,11.83
2022-10-15T20:46:55.335Z,10.53
2022-10-15T20:49:38.505Z,7.87
2022-10-15T20:52:07.356Z,5.47
2022-10-15T20:54:36.796Z,7.23
2022-10-15T20:57:05.311Z,6.43
2022-10-15T20:59:33.113Z,8.40
2022-10-15T21:02:00.865Z,10.33
2022-10-15T21:04:28.544Z,8.20
2022-10-15T21:06:57.333Z,5.27
2022-10-15T21:09:25.234Z,7.10
2022-10-15T21:11:53.005Z,7.40
2022-10-15T21:14:20.830Z,10.40
2022-10-15T21:16:48.506Z,7.20
2022-10-15T21:19:16.430Z,7.77
2022-10-15T21:21:44.173Z,8.57
2022-10-15T21:24:12.905Z,11.70
2022-10-15T21:26:41.038Z,10.50
2022-10-15T21:29:15.117Z,6.20
2022-10-15T21:31:44.202Z,5.80
2022-10-15T21:34:11.881Z,11.13
2022-10-15T21:36:41.020Z,9.23
2022-10-15T21:39:09.916Z,6.40
2022-10-15T21:41:39.667Z,9.93
2022-10-15T21:44:09.266Z,11.07
2022-10-15T21:46:41.620Z,10.57
2022-10-15T21:49:10.325Z,9.20
2022-10-15T21:51:38.930Z,14.30
2022-10-15T21:54:09.408Z,10.30
2022-10-15T21:56:37.866Z,9.20
2022-10-15T21:59:06.321Z,9.23
2022-10-15T22:01:39.752Z,10.37
2022-10-15T22:04:11.208Z,11.23
2022-10-15T22:06:40.971Z,9.50
2022-10-15T22:09:11.161Z,12.70
2022-10-15T22:11:41.907Z,15.20
2022-10-15T22:14:15.240Z,8.83
2022-10-15T22:16:43.334Z,9.97
2022-10-15T22:19:16.420Z,10.47
2022-10-15T22:21:45.798Z,8.27
2022-10-15T22:24:19.725Z,12.63
2022-10-15T22:26:53.199Z,7.87
2022-10-15T22:29:34.505Z,13.00
2022-10-15T22:32:04.589Z,8.37
2022-10-15T22:34:32.540Z,10.30
2022-10-15T22:37:00.185Z,10.13
2022-10-15T22:39:28.236Z,8.90
2022-10-15T22:41:56.188Z,11.60
2022-10-15T22:44:24.055Z,10.63
2022-10-15T22:46:51.852Z,12.40
2022-10-15T22:49:22.869Z,10.90
2022-10-15T22:51:51.594Z,9.17
2022-10-15T22:54:22.921Z,9.80
2022-10-15T22:56:52.630Z,14.73
2022-10-15T22:59:21.264Z,16.43
2022-10-15T23:01:49.070Z,9.73
2022-10-15T23:04:18.262Z,9.90
2022-10-15T23:06:46.100Z,10.33
2022-10-15T23:09:18.120Z,10.97
2022-10-15T23:11:46.734Z,10.40
2022-10-15T23:14:17.714Z,11.30
2022-10-15T23:16:48.534Z,18.33
2022-10-15T23:19:22.528Z,9.97
2022-10-15T23:21:56.842Z,7.50
2022-10-15T23:24:29.046Z,15.23
2022-10-15T23:26:57.271Z,8.90
2022-10-15T23:29:26.816Z,11.10
2022-10-15T23:31:55.559Z,12.97
2022-10-15T23:34:26.999Z,8.90
2022-10-15T23:36:54.978Z,6.60
2022-10-15T23:39:27.624Z,9.33
2022-10-15T23:41:55.803Z,11.80
2022-10-15T23:44:26.959Z,13.70
2022-10-15T23:46:55.234Z,7.17
2022-10-15T23:49:23.058Z,10.00
2022-10-15T23:51:50.762Z,10.33
2022-10-15T23:54:19.732Z,8.87
2022-10-15T23:56:48.560Z,10.67
2022-10-15T23:59:18.408Z,13.00
